Terminal Aerodrome Forecast
Issued by NWS

Home | Current Version | Previous Version | Text Only | Print | Product List | Glossary On
Versions: 1 2 3 4 5 6 7 8 9 10 11 12 13 14 15 16 17 18 19 20 21 22 23 24 25 26 27 28 29 30 31
000
FTUS44 KOUN 031909 AAA
TAFGAG
TAF AMD
KGAG 031909Z 0319/0418 02012G18KT P6SM OVC200
     FM032100 03011G17KT P6SM BKN015 OVC100
     FM040300 03010KT 4SM BR OVC010 PROB30 0405/0411 2SM -PL BR
      OVC007
     FM041100 02015G22KT 3SM -SNPL BR OVC008=

USA.gov is the U.S. government's official web portal to all federal, state and local government web resources and services.